sensor_id;sensor_type;location;lat;lon;timestamp;temperature;humidity
14893;DHT22;7538;53.626;9.906;2024-02-14T00:00:44;7.30;99.90
14893;DHT22;7538;53.626;9.906;2024-02-14T00:03:11;7.30;99.90
14893;DHT22;7538;53.626;9.906;2024-02-14T00:05:37;7.60;99.90
14893;DHT22;7538;53.626;9.906;2024-02-14T00:08:06;7.20;99.90
14893;DHT22;7538;53.626;9.906;2024-02-14T00:10:33;7.10;99.90
14893;DHT22;7538;53.626;9.906;2024-02-14T00:13:00;7.20;99.90
14893;DHT22;7538;53.626;9.906;2024-02-14T00:15:27;7.10;99.90
14893;DHT22;7538;53.626;9.906;2024-02-14T00:17:56;7.10;99.90
14893;DHT22;7538;53.626;9.906;2024-02-14T00:20:22;7.10;99.90
14893;DHT22;7538;53.626;9.906;2024-02-14T00:22:50;7.10;99.90
14893;DHT22;7538;53.626;9.906;2024-02-14T00:25:16;7.10;99.90
14893;DHT22;7538;53.626;9.906;2024-02-14T00:27:43;7.10;99.90
14893;DHT22;7538;53.626;9.906;2024-02-14T00:30:10;7.10;99.90
14893;DHT22;7538;53.626;9.906;2024-02-14T00:32:37;7.10;99.90
14893;DHT22;7538;53.626;9.906;2024-02-14T00:35:06;7.00;99.90
14893;DHT22;7538;53.626;9.906;2024-02-14T00:37:33;7.10;99.90
14893;DHT22;7538;53.626;9.906;2024-02-14T00:40:00;7.20;99.90
14893;DHT22;7538;53.626;9.906;2024-02-14T00:42:27;7.10;99.90
14893;DHT22;7538;53.626;9.906;2024-02-14T00:44:54;7.10;99.90
14893;DHT22;7538;53.626;9.906;2024-02-14T00:47:20;7.10;99.90
14893;DHT22;7538;53.626;9.906;2024-02-14T00:49:47;7.10;99.90
14893;DHT22;7538;53.626;9.906;2024-02-14T00:52:15;7.20;99.90
14893;DHT22;7538;53.626;9.906;2024-02-14T00:54:43;7.20;99.90
14893;DHT22;7538;53.626;9.906;2024-02-14T00:57:09;10.70;99.90
14893;DHT22;7538;53.626;9.906;2024-02-14T00:59:37;7.20;99.90
14893;DHT22;7538;53.626;9.906;2024-02-14T01:02:04;7.20;99.90
14893;DHT22;7538;53.626;9.906;2024-02-14T01:04:31;9.30;99.90
14893;DHT22;7538;53.626;9.906;2024-02-14T01:06:57;7.30;99.90
14893;DHT22;7538;53.626;9.906;2024-02-14T01:09:26;7.30;99.90
14893;DHT22;7538;53.626;9.906;2024-02-14T01:11:52;7.40;99.90
14893;DHT22;7538;53.626;9.906;2024-02-14T01:14:19;7.40;99.90
14893;DHT22;7538;53.626;9.906;2024-02-14T01:16:47;7.50;99.90
14893;DHT22;7538;53.626;9.906;2024-02-14T01:19:14;7.40;99.90
14893;DHT22;7538;53.626;9.906;2024-02-14T01:21:41;7.40;99.90
14893;DHT22;7538;53.626;9.906;2024-02-14T01:24:08;7.40;99.90
14893;DHT22;7538;53.626;9.906;2024-02-14T01:26:36;7.50;99.90
14893;DHT22;7538;53.626;9.906;2024-02-14T01:29:03;6.10;99.90
14893;DHT22;7538;53.626;9.906;2024-02-14T01:31:31;7.50;99.90
14893;DHT22;7538;53.626;9.906;2024-02-14T01:33:59;7.40;99.90
14893;DHT22;7538;53.626;9.906;2024-02-14T01:36:27;7.40;99.90
14893;DHT22;7538;53.626;9.906;2024-02-14T01:38:54;7.40;99.90
14893;DHT22;7538;53.626;9.906;2024-02-14T01:41:21;7.40;99.90
14893;DHT22;7538;53.626;9.906;2024-02-14T01:43:49;7.40;99.90
14893;DHT22;7538;53.626;9.906;2024-02-14T01:46:15;7.40;99.90
14893;DHT22;7538;53.626;9.906;2024-02-14T01:48:43;7.40;99.90
14893;DHT22;7538;53.626;9.906;2024-02-14T01:51:11;7.40;99.90
14893;DHT22;7538;53.626;9.906;2024-02-14T01:53:40;7.30;99.90
14893;DHT22;7538;53.626;9.906;2024-02-14T01:56:08;7.30;99.90
14893;DHT22;7538;53.626;9.906;2024-02-14T01:58:35;7.60;99.90
14893;DHT22;7538;53.626;9.906;2024-02-14T02:01:04;7.20;99.90
14893;DHT22;7538;53.626;9.906;2024-02-14T02:03:32;7.10;99.90
14893;DHT22;7538;53.626;9.906;2024-02-14T02:06:02;7.00;99.90
14893;DHT22;7538;53.626;9.906;2024-02-14T02:08:29;7.00;99.90
14893;DHT22;7538;53.626;9.906;2024-02-14T02:10:55;7.00;99.90
14893;DHT22;7538;53.626;9.906;2024-02-14T02:13:22;7.00;99.90
14893;DHT22;7538;53.626;9.906;2024-02-14T02:15:51;7.00;99.90
14893;DHT22;7538;53.626;9.906;2024-02-14T02:18:20;7.00;99.90
14893;DHT22;7538;53.626;9.906;2024-02-14T02:20:46;7.00;99.90
14893;DHT22;7538;53.626;9.906;2024-02-14T02:23:15;7.00;99.90
14893;DHT22;7538;53.626;9.906;2024-02-14T02:25:41;6.90;99.90
14893;DHT22;7538;53.626;9.906;2024-02-14T02:28:09;6.90;99.90
14893;DHT22;7538;53.626;9.906;2024-02-14T02:30:36;6.80;99.90
14893;DHT22;7538;53.626;9.906;2024-02-14T02:33:03;6.80;99.90
14893;DHT22;7538;53.626;9.906;2024-02-14T02:35:30;6.70;99.90
14893;DHT22;7538;53.626;9.906;2024-02-14T02:37:57;6.70;99.90
14893;DHT22;7538;53.626;9.906;2024-02-14T02:40:26;6.70;99.90
14893;DHT22;7538;53.626;9.906;2024-02-14T02:42:53;6.70;99.90
14893;DHT22;7538;53.626;9.906;2024-02-14T02:45:20;6.60;99.90
14893;DHT22;7538;53.626;9.906;2024-02-14T02:47:47;6.60;99.90
14893;DHT22;7538;53.626;9.906;2024-02-14T02:50:15;6.60;99.90
14893;DHT22;7538;53.626;9.906;2024-02-14T02:52:42;6.60;99.90
14893;DHT22;7538;53.626;9.906;2024-02-14T02:55:09;6.60;99.90
14893;DHT22;7538;53.626;9.906;2024-02-14T02:57:37;6.60;99.90
14893;DHT22;7538;53.626;9.906;2024-02-14T03:00:06;9.50;99.90
14893;DHT22;7538;53.626;9.906;2024-02-14T03:02:34;6.60;99.90
14893;DHT22;7538;53.626;9.906;2024-02-14T03:05:04;7.10;99.90
14893;DHT22;7538;53.626;9.906;2024-02-14T03:07:35;6.50;99.90
14893;DHT22;7538;53.626;9.906;2024-02-14T03:10:03;6.50;99.90
14893;DHT22;7538;53.626;9.906;2024-02-14T03:12:30;3.10;99.90
14893;DHT22;7538;53.626;9.906;2024-02-14T03:14:59;6.40;99.90
14893;DHT22;7538;53.626;9.906;2024-02-14T03:17:26;6.40;99.90
14893;DHT22;7538;53.626;9.906;2024-02-14T03:19:54;6.50;99.90
14893;DHT22;7538;53.626;9.906;2024-02-14T03:22:22;6.40;99.90
14893;DHT22;7538;53.626;9.906;2024-02-14T03:24:48;6.40;99.90
14893;DHT22;7538;53.626;9.906;2024-02-14T03:27:15;6.40;99.90
14893;DHT22;7538;53.626;9.906;2024-02-14T03:29:42;6.40;99.90
14893;DHT22;7538;53.626;9.906;2024-02-14T03:32:10;6.30;99.90
14893;DHT22;7538;53.626;9.906;2024-02-14T03:34:37;6.20;99.90
14893;DHT22;7538;53.626;9.906;2024-02-14T03:37:04;6.20;99.90
14893;DHT22;7538;53.626;9.906;2024-02-14T03:39:32;6.20;99.90
14893;DHT22;7538;53.626;9.906;2024-02-14T03:41:59;9.70;99.90
14893;DHT22;7538;53.626;9.906;2024-02-14T03:44:28;6.10;99.90
14893;DHT22;7538;53.626;9.906;2024-02-14T03:46:55;6.20;99.90
14893;DHT22;7538;53.626;9.906;2024-02-14T03:49:23;6.20;99.90
14893;DHT22;7538;53.626;9.906;2024-02-14T03:51:51;6.20;99.90
14893;DHT22;7538;53.626;9.906;2024-02-14T03:54:20;6.10;99.90
14893;DHT22;7538;53.626;9.906;2024-02-14T03:56:47;6.30;99.90
14893;DHT22;7538;53.626;9.906;2024-02-14T03:59:14;6.50;99.90
14893;DHT22;7538;53.626;9.906;2024-02-14T04:01:44;6.00;99.90
14893;DHT22;7538;53.626;9.906;2024-02-14T04:04:11;6.00;99.90
14893;DHT22;7538;53.626;9.906;2024-02-14T04:06:39;6.30;99.90
14893;DHT22;7538;53.626;9.906;2024-02-14T04:09:07;6.20;99.90
14893;DHT22;7538;53.626;9.906;2024-02-14T04:11:34;5.90;99.90
14893;DHT22;7538;53.626;9.906;2024-02-14T04:14:02;5.90;99.90
14893;DHT22;7538;53.626;9.906;2024-02-14T04:16:28;6.00;99.90
14893;DHT22;7538;53.626;9.906;2024-02-14T04:18:55;6.00;99.90
14893;DHT22;7538;53.626;9.906;2024-02-14T04:21:22;6.00;99.90
14893;DHT22;7538;53.626;9.906;2024-02-14T04:23:50;5.90;99.90
14893;DHT22;7538;53.626;9.906;2024-02-14T04:26:20;5.90;99.90
14893;DHT22;7538;53.626;9.906;2024-02-14T04:28:47;8.60;99.90
14893;DHT22;7538;53.626;9.906;2024-02-14T04:31:14;5.70;99.90
14893;DHT22;7538;53.626;9.906;2024-02-14T04:33:41;5.60;99.90
14893;DHT22;7538;53.626;9.906;2024-02-14T04:36:08;5.60;99.90
14893;DHT22;7538;53.626;9.906;2024-02-14T04:38:36;5.60;99.90
14893;DHT22;7538;53.626;9.906;2024-02-14T04:41:05;5.60;99.90
14893;DHT22;7538;53.626;9.906;2024-02-14T04:43:32;5.70;99.90
14893;DHT22;7538;53.626;9.906;2024-02-14T04:45:58;5.60;99.90
14893;DHT22;7538;53.626;9.906;2024-02-14T04:48:25;6.20;99.90
14893;DHT22;7538;53.626;9.906;2024-02-14T04:50:53;6.60;99.90
14893;DHT22;7538;53.626;9.906;2024-02-14T04:53:19;5.60;99.90
14893;DHT22;7538;53.626;9.906;2024-02-14T04:55:46;5.60;99.90
14893;DHT22;7538;53.626;9.906;2024-02-14T04:58:14;5.90;99.90
14893;DHT22;7538;53.626;9.906;2024-02-14T05:00:41;5.60;99.90
14893;DHT22;7538;53.626;9.906;2024-02-14T05:03:09;5.70;99.90
14893;DHT22;7538;53.626;9.906;2024-02-14T05:05:35;5.80;99.90
14893;DHT22;7538;53.626;9.906;2024-02-14T05:08:04;5.80;99.90
14893;DHT22;7538;53.626;9.906;2024-02-14T05:10:31;5.80;99.90
14893;DHT22;7538;53.626;9.906;2024-02-14T05:12:58;5.80;99.90
14893;DHT22;7538;53.626;9.906;2024-02-14T05:15:26;5.90;99.90
14893;DHT22;7538;53.626;9.906;2024-02-14T05:17:53;5.90;99.90
14893;DHT22;7538;53.626;9.906;2024-02-14T05:20:21;5.90;99.90
14893;DHT22;7538;53.626;9.906;2024-02-14T05:22:48;6.00;99.90
14893;DHT22;7538;53.626;9.906;2024-02-14T05:25:14;6.00;99.90
14893;DHT22;7538;53.626;9.906;2024-02-14T05:27:41;6.00;99.90
14893;DHT22;7538;53.626;9.906;2024-02-14T05:30:08;5.90;99.90
14893;DHT22;7538;53.626;9.906;2024-02-14T05:32:36;6.00;99.90
14893;DHT22;7538;53.626;9.906;2024-02-14T05:35:05;5.90;99.90
14893;DHT22;7538;53.626;9.906;2024-02-14T05:37:33;6.00;99.90
14893;DHT22;7538;53.626;9.906;2024-02-14T05:40:02;6.00;99.90
14893;DHT22;7538;53.626;9.906;2024-02-14T05:42:32;6.10;99.90
14893;DHT22;7538;53.626;9.906;2024-02-14T05:45:00;6.10;99.90
14893;DHT22;7538;53.626;9.906;2024-02-14T05:47:29;6.10;99.90
14893;DHT22;7538;53.626;9.906;2024-02-14T05:49:58;6.20;99.90
14893;DHT22;7538;53.626;9.906;2024-02-14T05:52:25;6.20;99.90
14893;DHT22;7538;53.626;9.906;2024-02-14T05:54:52;6.20;99.90
14893;DHT22;7538;53.626;9.906;2024-02-14T05:57:19;9.00;99.90
14893;DHT22;7538;53.626;9.906;2024-02-14T05:59:46;6.30;99.90
14893;DHT22;7538;53.626;9.906;2024-02-14T06:02:13;6.40;99.90
14893;DHT22;7538;53.626;9.906;2024-02-14T06:04:40;6.40;99.90
14893;DHT22;7538;53.626;9.906;2024-02-14T06:07:08;6.30;99.90
14893;DHT22;7538;53.626;9.906;2024-02-14T06:09:36;6.40;99.90
14893;DHT22;7538;53.626;9.906;2024-02-14T06:12:04;6.50;99.90
14893;DHT22;7538;53.626;9.906;2024-02-14T06:14:30;6.50;99.90
14893;DHT22;7538;53.626;9.906;2024-02-14T06:16:59;6.50;99.90
14893;DHT22;7538;53.626;9.906;2024-02-14T06:19:26;6.50;99.90
14893;DHT22;7538;53.626;9.906;2024-02-14T06:21:53;6.50;99.90
14893;DHT22;7538;53.626;9.906;2024-02-14T06:24:21;6.50;99.90
14893;DHT22;7538;53.626;9.906;2024-02-14T06:26:48;6.50;99.90
14893;DHT22;7538;53.626;9.906;2024-02-14T06:29:15;6.60;99.90
14893;DHT22;7538;53.626;9.906;2024-02-14T06:31:42;9.20;99.90
14893;DHT22;7538;53.626;9.906;2024-02-14T06:34:09;6.60;99.90
14893;DHT22;7538;53.626;9.906;2024-02-14T06:36:36;6.80;99.90
14893;DHT22;7538;53.626;9.906;2024-02-14T06:39:03;6.70;99.90
14893;DHT22;7538;53.626;9.906;2024-02-14T06:41:32;6.80;99.90
14893;DHT22;7538;53.626;9.906;2024-02-14T06:43:58;6.70;99.90
14893;DHT22;7538;53.626;9.906;2024-02-14T06:46:25;6.80;99.90
14893;DHT22;7538;53.626;9.906;2024-02-14T06:48:52;6.80;99.90
14893;DHT22;7538;53.626;9.906;2024-02-14T06:51:20;6.80;99.90
14893;DHT22;7538;53.626;9.906;2024-02-14T06:53:47;6.80;99.90
14893;DHT22;7538;53.626;9.906;2024-02-14T06:56:14;6.90;99.90
14893;DHT22;7538;53.626;9.906;2024-02-14T06:58:43;6.90;99.90
14893;DHT22;7538;53.626;9.906;2024-02-14T07:01:10;6.90;99.90
14893;DHT22;7538;53.626;9.906;2024-02-14T07:03:39;6.90;99.90
14893;DHT22;7538;53.626;9.906;2024-02-14T07:06:06;6.90;99.90
14893;DHT22;7538;53.626;9.906;2024-02-14T07:08:33;7.00;99.90
14893;DHT22;7538;53.626;9.906;2024-02-14T07:11:00;9.90;99.90
14893;DHT22;7538;53.626;9.906;2024-02-14T07:13:27;7.50;99.90
14893;DHT22;7538;53.626;9.906;2024-02-14T07:15:55;7.10;99.90
14893;DHT22;7538;53.626;9.906;2024-02-14T07:18:22;7.00;99.90
14893;DHT22;7538;53.626;9.906;2024-02-14T07:20:48;7.00;99.90
14893;DHT22;7538;53.626;9.906;2024-02-14T07:23:16;7.80;99.90
14893;DHT22;7538;53.626;9.906;2024-02-14T07:25:43;7.10;99.90
14893;DHT22;7538;53.626;9.906;2024-02-14T07:28:10;7.10;99.90
14893;DHT22;7538;53.626;9.906;2024-02-14T07:30:37;7.10;99.90
14893;DHT22;7538;53.626;9.906;2024-02-14T07:33:05;7.20;99.90
14893;DHT22;7538;53.626;9.906;2024-02-14T07:35:33;7.20;99.90
14893;DHT22;7538;53.626;9.906;2024-02-14T07:38:00;7.20;99.90
14893;DHT22;7538;53.626;9.906;2024-02-14T07:40:27;7.30;99.90
14893;DHT22;7538;53.626;9.906;2024-02-14T07:42:56;7.30;99.90
14893;DHT22;7538;53.626;9.906;2024-02-14T07:45:23;7.30;99.90
14893;DHT22;7538;53.626;9.906;2024-02-14T07:47:50;7.20;99.90
14893;DHT22;7538;53.626;9.906;2024-02-14T07:50:18;7.30;99.90
14893;DHT22;7538;53.626;9.906;2024-02-14T07:52:45;7.40;99.90
14893;DHT22;7538;53.626;9.906;2024-02-14T07:55:12;7.30;99.90
14893;DHT22;7538;53.626;9.906;2024-02-14T07:57:39;7.40;99.90
14893;DHT22;7538;53.626;9.906;2024-02-14T08:00:06;7.40;99.90
14893;DHT22;7538;53.626;9.906;2024-02-14T08:02:34;7.40;99.90
14893;DHT22;7538;53.626;9.906;2024-02-14T08:05:01;7.50;99.90
14893;DHT22;7538;53.626;9.906;2024-02-14T08:07:31;7.50;99.90
14893;DHT22;7538;53.626;9.906;2024-02-14T08:09:58;7.60;99.90
14893;DHT22;7538;53.626;9.906;2024-02-14T08:12:25;7.60;99.90
14893;DHT22;7538;53.626;9.906;2024-02-14T08:14:52;7.90;99.90
14893;DHT22;7538;53.626;9.906;2024-02-14T08:17:19;7.70;99.90
14893;DHT22;7538;53.626;9.906;2024-02-14T08:19:45;7.70;99.90
14893;DHT22;7538;53.626;9.906;2024-02-14T08:22:13;7.80;99.90
14893;DHT22;7538;53.626;9.906;2024-02-14T08:24:41;7.80;99.90
14893;DHT22;7538;53.626;9.906;2024-02-14T08:27:08;7.80;99.90
14893;DHT22;7538;53.626;9.906;2024-02-14T08:29:35;7.90;99.90
14893;DHT22;7538;53.626;9.906;2024-02-14T08:32:03;7.90;99.90
14893;DHT22;7538;53.626;9.906;2024-02-14T08:34:30;7.90;99.90
14893;DHT22;7538;53.626;9.906;2024-02-14T08:36:57;8.00;99.90
14893;DHT22;7538;53.626;9.906;2024-02-14T08:39:24;8.00;99.90
14893;DHT22;7538;53.626;9.906;2024-02-14T08:41:53;8.10;99.90
14893;DHT22;7538;53.626;9.906;2024-02-14T08:44:19;8.20;99.90
14893;DHT22;7538;53.626;9.906;2024-02-14T08:46:46;8.20;99.90
14893;DHT22;7538;53.626;9.906;2024-02-14T08:49:14;8.20;99.90
14893;DHT22;7538;53.626;9.906;2024-02-14T08:51:40;8.30;99.90
14893;DHT22;7538;53.626;9.906;2024-02-14T08:54:09;8.40;99.90
14893;DHT22;7538;53.626;9.906;2024-02-14T08:56:37;8.40;99.90
14893;DHT22;7538;53.626;9.906;2024-02-14T08:59:05;8.50;99.90
14893;DHT22;7538;53.626;9.906;2024-02-14T09:01:32;8.60;99.90
14893;DHT22;7538;53.626;9.906;2024-02-14T09:03:59;8.60;99.90
14893;DHT22;7538;53.626;9.906;2024-02-14T09:06:26;8.70;99.90
14893;DHT22;7538;53.626;9.906;2024-02-14T09:08:54;8.80;99.90
14893;DHT22;7538;53.626;9.906;2024-02-14T09:11:21;8.80;99.90
14893;DHT22;7538;53.626;9.906;2024-02-14T09:13:48;8.90;99.90
14893;DHT22;7538;53.626;9.906;2024-02-14T09:16:20;9.00;99.90
14893;DHT22;7538;53.626;9.906;2024-02-14T09:18:49;9.00;99.90
14893;DHT22;7538;53.626;9.906;2024-02-14T09:21:16;9.10;99.90
14893;DHT22;7538;53.626;9.906;2024-02-14T09:23:46;9.10;99.90
14893;DHT22;7538;53.626;9.906;2024-02-14T09:26:13;9.10;99.90
14893;DHT22;7538;53.626;9.906;2024-02-14T09:28:42;9.20;99.90
14893;DHT22;7538;53.626;9.906;2024-02-14T09:31:08;9.30;99.90
14893;DHT22;7538;53.626;9.906;2024-02-14T09:33:38;9.30;99.90
14893;DHT22;7538;53.626;9.906;2024-02-14T09:36:06;9.30;99.90
14893;DHT22;7538;53.626;9.906;2024-02-14T09:38:33;9.40;99.90
14893;DHT22;7538;53.626;9.906;2024-02-14T09:41:06;9.40;99.90
14893;DHT22;7538;53.626;9.906;2024-02-14T09:43:36;9.50;99.90
14893;DHT22;7538;53.626;9.906;2024-02-14T09:46:04;9.60;99.90
14893;DHT22;7538;53.626;9.906;2024-02-14T09:48:33;9.60;99.90
14893;DHT22;7538;53.626;9.906;2024-02-14T09:51:02;9.70;99.90
14893;DHT22;7538;53.626;9.906;2024-02-14T09:53:29;9.80;99.90
14893;DHT22;7538;53.626;9.906;2024-02-14T09:55:57;9.80;99.90
14893;DHT22;7538;53.626;9.906;2024-02-14T09:58:25;9.90;99.90
14893;DHT22;7538;53.626;9.906;2024-02-14T10:00:58;9.90;99.90
14893;DHT22;7538;53.626;9.906;2024-02-14T10:03:25;10.00;99.90
14893;DHT22;7538;53.626;9.906;2024-02-14T10:05:52;10.10;99.90
14893;DHT22;7538;53.626;9.906;2024-02-14T10:08:20;10.10;99.90
14893;DHT22;7538;53.626;9.906;2024-02-14T10:10:48;6.90;99.90
14893;DHT22;7538;53.626;9.906;2024-02-14T10:13:15;10.10;99.90
14893;DHT22;7538;53.626;9.906;2024-02-14T10:15:42;10.20;99.90
14893;DHT22;7538;53.626;9.906;2024-02-14T10:18:09;10.20;99.90
14893;DHT22;7538;53.626;9.906;2024-02-14T10:20:36;10.20;99.90
14893;DHT22;7538;53.626;9.906;2024-02-14T10:23:08;10.30;99.90
14893;DHT22;7538;53.626;9.906;2024-02-14T10:25:36;10.40;99.90
14893;DHT22;7538;53.626;9.906;2024-02-14T10:28:04;10.40;99.90
14893;DHT22;7538;53.626;9.906;2024-02-14T10:30:34;10.50;99.90
14893;DHT22;7538;53.626;9.906;2024-02-14T10:33:04;10.50;99.90
14893;DHT22;7538;53.626;9.906;2024-02-14T10:35:32;10.60;99.90
14893;DHT22;7538;53.626;9.906;2024-02-14T10:38:00;10.60;99.90
14893;DHT22;7538;53.626;9.906;2024-02-14T10:40:28;10.80;99.90
14893;DHT22;7538;53.626;9.906;2024-02-14T10:42:57;10.80;99.90
14893;DHT22;7538;53.626;9.906;2024-02-14T10:45:24;10.90;99.90
14893;DHT22;7538;53.626;9.906;2024-02-14T10:47:52;11.00;99.90
14893;DHT22;7538;53.626;9.906;2024-02-14T10:50:21;11.10;99.90
14893;DHT22;7538;53.626;9.906;2024-02-14T10:52:49;11.60;99.90
14893;DHT22;7538;53.626;9.906;2024-02-14T10:55:17;11.30;99.90
14893;DHT22;7538;53.626;9.906;2024-02-14T10:57:44;11.30;99.90
14893;DHT22;7538;53.626;9.906;2024-02-14T11:00:15;11.30;99.90
14893;DHT22;7538;53.626;9.906;2024-02-14T11:02:43;11.30;99.90
14893;DHT22;7538;53.626;9.906;2024-02-14T11:05:13;11.30;99.90
14893;DHT22;7538;53.626;9.906;2024-02-14T11:07:44;11.40;99.90
14893;DHT22;7538;53.626;9.906;2024-02-14T11:10:14;11.40;99.90
14893;DHT22;7538;53.626;9.906;2024-02-14T11:12:41;11.50;99.90
14893;DHT22;7538;53.626;9.906;2024-02-14T11:15:15;11.60;99.90
14893;DHT22;7538;53.626;9.906;2024-02-14T11:17:43;11.50;99.90
14893;DHT22;7538;53.626;9.906;2024-02-14T11:20:17;11.60;99.90
14893;DHT22;7538;53.626;9.906;2024-02-14T11:22:53;11.60;99.90
14893;DHT22;7538;53.626;9.906;2024-02-14T11:25:31;11.60;99.90
14893;DHT22;7538;53.626;9.906;2024-02-14T11:27:59;11.60;99.90
14893;DHT22;7538;53.626;9.906;2024-02-14T11:30:34;11.60;99.90
14893;DHT22;7538;53.626;9.906;2024-02-14T11:33:16;11.60;99.90
14893;DHT22;7538;53.626;9.906;2024-02-14T11:35:45;11.60;99.90
14893;DHT22;7538;53.626;9.906;2024-02-14T11:38:13;11.60;99.90
14893;DHT22;7538;53.626;9.906;2024-02-14T11:40:40;11.70;99.90
14893;DHT22;7538;53.626;9.906;2024-02-14T11:43:11;11.70;99.90
14893;DHT22;7538;53.626;9.906;2024-02-14T11:45:41;11.80;99.90
14893;DHT22;7538;53.626;9.906;2024-02-14T11:48:09;11.90;99.90
14893;DHT22;7538;53.626;9.906;2024-02-14T11:50:36;12.00;99.90
14893;DHT22;7538;53.626;9.906;2024-02-14T11:53:05;12.00;99.90
14893;DHT22;7538;53.626;9.906;2024-02-14T11:55:34;12.00;99.90
14893;DHT22;7538;53.626;9.906;2024-02-14T11:58:03;12.10;99.90
14893;DHT22;7538;53.626;9.906;2024-02-14T12:00:29;12.10;99.90
14893;DHT22;7538;53.626;9.906;2024-02-14T12:02:58;12.10;99.90
14893;DHT22;7538;53.626;9.906;2024-02-14T12:05:25;12.10;99.90
14893;DHT22;7538;53.626;9.906;2024-02-14T12:07:51;12.20;99.90
14893;DHT22;7538;53.626;9.906;2024-02-14T12:10:19;12.20;99.90
14893;DHT22;7538;53.626;9.906;2024-02-14T12:12:47;12.20;99.90
14893;DHT22;7538;53.626;9.906;2024-02-14T12:15:16;12.20;99.90
14893;DHT22;7538;53.626;9.906;2024-02-14T12:17:45;12.20;99.90
14893;DHT22;7538;53.626;9.906;2024-02-14T12:20:15;12.20;99.90
14893;DHT22;7538;53.626;9.906;2024-02-14T12:22:42;10.40;99.90
14893;DHT22;7538;53.626;9.906;2024-02-14T12:25:09;12.30;99.90
14893;DHT22;7538;53.626;9.906;2024-02-14T12:27:36;12.30;99.90
14893;DHT22;7538;53.626;9.906;2024-02-14T12:30:04;12.30;99.90
14893;DHT22;7538;53.626;9.906;2024-02-14T12:32:31;12.40;99.90
14893;DHT22;7538;53.626;9.906;2024-02-14T12:34:58;12.30;99.90
14893;DHT22;7538;53.626;9.906;2024-02-14T12:37:26;12.40;99.90
14893;DHT22;7538;53.626;9.906;2024-02-14T12:39:53;12.30;99.90
14893;DHT22;7538;53.626;9.906;2024-02-14T12:42:21;12.40;99.90
14893;DHT22;7538;53.626;9.906;2024-02-14T12:44:51;12.40;99.90
14893;DHT22;7538;53.626;9.906;2024-02-14T12:47:18;12.40;99.90
14893;DHT22;7538;53.626;9.906;2024-02-14T12:49:46;12.40;99.90
14893;DHT22;7538;53.626;9.906;2024-02-14T12:52:13;12.40;99.90
14893;DHT22;7538;53.626;9.906;2024-02-14T12:54:42;12.40;99.90
14893;DHT22;7538;53.626;9.906;2024-02-14T12:57:09;12.40;99.90
14893;DHT22;7538;53.626;9.906;2024-02-14T12:59:37;12.40;99.90
14893;DHT22;7538;53.626;9.906;2024-02-14T13:02:04;12.40;99.90
14893;DHT22;7538;53.626;9.906;2024-02-14T13:04:32;12.30;99.90
14893;DHT22;7538;53.626;9.906;2024-02-14T13:06:59;12.30;99.90
14893;DHT22;7538;53.626;9.906;2024-02-14T13:09:26;12.30;99.90
14893;DHT22;7538;53.626;9.906;2024-02-14T13:11:54;12.30;99.90
14893;DHT22;7538;53.626;9.906;2024-02-14T13:14:21;12.30;99.90
14893;DHT22;7538;53.626;9.906;2024-02-14T13:16:48;12.40;99.90
14893;DHT22;7538;53.626;9.906;2024-02-14T13:19:15;12.40;99.90
14893;DHT22;7538;53.626;9.906;2024-02-14T13:21:42;12.40;99.90
14893;DHT22;7538;53.626;9.906;2024-02-14T13:24:11;12.30;99.90
14893;DHT22;7538;53.626;9.906;2024-02-14T13:26:39;12.40;99.90
14893;DHT22;7538;53.626;9.906;2024-02-14T13:29:07;12.30;99.90
14893;DHT22;7538;53.626;9.906;2024-02-14T13:31:34;12.40;99.90
14893;DHT22;7538;53.626;9.906;2024-02-14T13:34:01;13.00;99.90
14893;DHT22;7538;53.626;9.906;2024-02-14T13:36:29;9.20;99.90
14893;DHT22;7538;53.626;9.906;2024-02-14T13:38:56;12.50;99.90
14893;DHT22;7538;53.626;9.906;2024-02-14T13:41:24;12.50;99.90
14893;DHT22;7538;53.626;9.906;2024-02-14T13:43:51;12.50;99.90
14893;DHT22;7538;53.626;9.906;2024-02-14T13:46:19;12.50;99.90
14893;DHT22;7538;53.626;9.906;2024-02-14T13:48:45;12.50;99.90
14893;DHT22;7538;53.626;9.906;2024-02-14T13:51:12;12.50;99.90
14893;DHT22;7538;53.626;9.906;2024-02-14T13:53:39;12.50;99.90
14893;DHT22;7538;53.626;9.906;2024-02-14T13:56:06;12.50;99.90
14893;DHT22;7538;53.626;9.906;2024-02-14T13:58:33;12.40;99.90
14893;DHT22;7538;53.626;9.906;2024-02-14T14:01:00;12.80;99.90
14893;DHT22;7538;53.626;9.906;2024-02-14T14:03:28;12.40;99.90
14893;DHT22;7538;53.626;9.906;2024-02-14T14:05:55;12.50;99.90
14893;DHT22;7538;53.626;9.906;2024-02-14T14:08:22;10.90;99.90
14893;DHT22;7538;53.626;9.906;2024-02-14T14:10:49;12.40;99.90
14893;DHT22;7538;53.626;9.906;2024-02-14T14:13:16;12.40;99.90
14893;DHT22;7538;53.626;9.906;2024-02-14T14:15:42;12.40;99.90
14893;DHT22;7538;53.626;9.906;2024-02-14T14:18:09;12.50;99.90
14893;DHT22;7538;53.626;9.906;2024-02-14T14:20:39;12.50;99.90
14893;DHT22;7538;53.626;9.906;2024-02-14T14:23:06;12.40;99.90
14893;DHT22;7538;53.626;9.906;2024-02-14T14:25:34;12.40;99.90
14893;DHT22;7538;53.626;9.906;2024-02-14T14:28:03;12.40;99.90
14893;DHT22;7538;53.626;9.906;2024-02-14T14:30:30;12.40;99.90
14893;DHT22;7538;53.626;9.906;2024-02-14T14:32:57;12.40;99.90
14893;DHT22;7538;53.626;9.906;2024-02-14T14:35:24;12.40;99.90
14893;DHT22;7538;53.626;9.906;2024-02-14T14:37:52;12.40;99.90
14893;DHT22;7538;53.626;9.906;2024-02-14T14:40:19;12.40;99.90
14893;DHT22;7538;53.626;9.906;2024-02-14T14:42:47;12.40;99.90
14893;DHT22;7538;53.626;9.906;2024-02-14T14:45:13;12.40;99.90
14893;DHT22;7538;53.626;9.906;2024-02-14T14:47:40;12.40;99.90
14893;DHT22;7538;53.626;9.906;2024-02-14T14:50:07;12.40;99.90
14893;DHT22;7538;53.626;9.906;2024-02-14T14:52:34;12.30;99.90
14893;DHT22;7538;53.626;9.906;2024-02-14T14:55:05;12.30;99.90
14893;DHT22;7538;53.626;9.906;2024-02-14T14:57:32;12.30;99.90
14893;DHT22;7538;53.626;9.906;2024-02-14T15:00:06;15.40;99.90
14893;DHT22;7538;53.626;9.906;2024-02-14T15:02:35;15.10;99.90
14893;DHT22;7538;53.626;9.906;2024-02-14T15:05:02;12.30;99.90
14893;DHT22;7538;53.626;9.906;2024-02-14T15:07:28;12.30;99.90
14893;DHT22;7538;53.626;9.906;2024-02-14T15:09:55;12.30;99.90
14893;DHT22;7538;53.626;9.906;2024-02-14T15:12:23;12.30;99.90
14893;DHT22;7538;53.626;9.906;2024-02-14T15:14:52;12.30;99.90
14893;DHT22;7538;53.626;9.906;2024-02-14T15:17:20;12.30;99.90
14893;DHT22;7538;53.626;9.906;2024-02-14T15:19:48;12.30;99.90
14893;DHT22;7538;53.626;9.906;2024-02-14T15:22:14;12.20;99.90
14893;DHT22;7538;53.626;9.906;2024-02-14T15:24:41;12.30;99.90
14893;DHT22;7538;53.626;9.906;2024-02-14T15:27:10;12.20;99.90
14893;DHT22;7538;53.626;9.906;2024-02-14T15:29:47;12.20;99.90
14893;DHT22;7538;53.626;9.906;2024-02-14T15:32:32;12.20;99.90
14893;DHT22;7538;53.626;9.906;2024-02-14T15:35:16;12.20;99.90
14893;DHT22;7538;53.626;9.906;2024-02-14T15:37:43;12.20;99.90
14893;DHT22;7538;53.626;9.906;2024-02-14T15:40:14;12.20;99.90
14893;DHT22;7538;53.626;9.906;2024-02-14T15:42:41;12.20;99.90
14893;DHT22;7538;53.626;9.906;2024-02-14T15:45:09;12.20;99.90
14893;DHT22;7538;53.626;9.906;2024-02-14T15:47:41;12.30;99.90
14893;DHT22;7538;53.626;9.906;2024-02-14T15:50:08;12.20;99.90
14893;DHT22;7538;53.626;9.906;2024-02-14T15:52:35;12.30;99.90
14893;DHT22;7538;53.626;9.906;2024-02-14T15:55:03;12.30;99.90
14893;DHT22;7538;53.626;9.906;2024-02-14T15:57:30;12.30;99.90